createdAt,value
2023-05-20T00:01:38.752Z,16.00
2023-05-20T00:11:42.311Z,14.80
2023-05-20T00:21:45.423Z,16.50
2023-05-20T00:31:48.504Z,15.70
2023-05-20T00:41:52.278Z,14.30
2023-05-20T00:51:55.524Z,14.00
2023-05-20T01:01:59.493Z,15.90
2023-05-20T01:12:09.883Z,13.00
2023-05-20T01:22:14.811Z,14.60
2023-05-20T01:32:40.658Z,13.30
2023-05-20T01:42:46.079Z,15.10
2023-05-20T01:52:49.882Z,13.50
2023-05-20T02:02:53.026Z,14.00
2023-05-20T02:12:56.353Z,13.10
2023-05-20T02:23:00.045Z,11.70
2023-05-20T02:33:03.078Z,10.90
2023-05-20T02:43:06.215Z,11.20
2023-05-20T02:53:10.470Z,10.40
2023-05-20T03:03:14.278Z,11.70
2023-05-20T03:13:17.653Z,9.20
2023-05-20T03:23:21.520Z,10.10
2023-05-20T03:33:26.480Z,9.50
2023-05-20T03:43:30.145Z,11.10
2023-05-20T03:53:33.572Z,10.20
2023-05-20T04:03:37.443Z,12.00
2023-05-20T04:13:40.939Z,10.60
2023-05-20T04:23:44.345Z,9.10
2023-05-20T04:33:47.701Z,8.00
2023-05-20T04:43:51.048Z,4.20
2023-05-20T04:53:54.574Z,5.10
2023-05-20T05:03:57.801Z,4.40
2023-05-20T05:14:00.922Z,5.20
2023-05-20T05:24:04.683Z,5.50
2023-05-20T05:34:07.927Z,5.40
2023-05-20T05:44:11.241Z,5.30
2023-05-20T05:54:14.481Z,6.60
2023-05-20T06:04:17.871Z,5.80
2023-05-20T06:14:21.400Z,6.20
2023-05-20T06:24:25.126Z,5.50
2023-05-20T06:34:28.675Z,5.70
2023-05-20T06:44:33.149Z,4.70
2023-05-20T06:55:06.288Z,4.80
2023-05-20T07:05:11.172Z,4.70
2023-05-20T07:15:14.530Z,6.10
2023-05-20T07:25:18.547Z,6.30
2023-05-20T07:35:22.048Z,6.10
2023-05-20T07:45:25.977Z,5.20
2023-05-20T07:55:29.347Z,5.00
2023-05-20T08:05:34.173Z,5.40
2023-05-20T08:15:37.506Z,6.00
2023-05-20T08:25:40.935Z,7.20
2023-05-20T08:35:44.507Z,5.90
2023-05-20T08:45:47.741Z,7.80
2023-05-20T08:56:01.002Z,6.70
2023-05-20T09:06:06.729Z,12.50
2023-05-20T09:16:11.233Z,8.30
2023-05-20T09:26:15.018Z,15.40
2023-05-20T09:36:20.547Z,10.00
2023-05-20T09:46:24.116Z,8.70
2023-05-20T09:56:28.614Z,10.80
2023-05-20T10:07:07.033Z,12.40
2023-05-20T10:17:19.701Z,9.90
2023-05-20T10:27:22.863Z,11.70
2023-05-20T10:37:32.900Z,11.90
2023-05-20T10:47:37.367Z,11.50
2023-05-20T10:57:41.588Z,13.00
2023-05-20T11:07:44.743Z,11.10
2023-05-20T11:17:59.918Z,14.20
2023-05-20T11:28:03.246Z,14.40
2023-05-20T11:38:10.421Z,13.50
2023-05-20T11:48:15.944Z,17.50
2023-05-20T11:58:25.031Z,15.90
2023-05-20T12:08:28.267Z,20.50
2023-05-20T12:18:32.082Z,16.50
2023-05-20T12:28:35.441Z,17.80
2023-05-20T12:38:38.614Z,19.30
2023-05-20T12:48:42.768Z,21.80
2023-05-20T12:58:46.199Z,19.50
2023-05-20T13:08:49.426Z,22.10
2023-05-20T13:18:52.916Z,19.40
2023-05-20T13:28:56.349Z,15.00
2023-05-20T13:38:59.697Z,17.70
2023-05-20T13:49:03.084Z,17.30
2023-05-20T13:59:06.298Z,16.00
2023-05-20T14:09:09.574Z,15.20
2023-05-20T14:19:12.900Z,13.80
2023-05-20T14:29:16.373Z,15.60
2023-05-20T14:39:19.454Z,16.60
2023-05-20T14:49:22.516Z,14.20
2023-05-20T14:59:25.937Z,19.30
2023-05-20T15:09:29.046Z,17.60
2023-05-20T15:19:33.107Z,15.80
2023-05-20T15:29:38.649Z,11.60
2023-05-20T15:39:42.353Z,13.70
2023-05-20T15:49:45.652Z,13.10
2023-05-20T15:59:48.760Z,15.90
2023-05-20T16:09:52.049Z,13.90
2023-05-20T16:19:55.471Z,14.00
2023-05-20T16:30:00.004Z,16.10
2023-05-20T16:40:04.561Z,15.50
2023-05-20T16:50:08.628Z,17.30
2023-05-20T17:00:13.450Z,18.50
2023-05-20T17:10:16.676Z,18.10
2023-05-20T17:20:20.032Z,16.70
2023-05-20T17:30:23.311Z,19.80
2023-05-20T17:40:26.531Z,18.10
2023-05-20T17:50:29.932Z,18.50
2023-05-20T18:00:34.726Z,25.80
2023-05-20T18:10:39.208Z,20.10
2023-05-20T18:20:42.375Z,19.90
2023-05-20T18:30:46.016Z,17.40
2023-05-20T18:40:49.739Z,20.90
2023-05-20T18:50:53.235Z,25.00
2023-05-20T19:01:48.209Z,22.20
2023-05-20T19:11:59.167Z,27.60
2023-05-20T19:22:03.109Z,40.60
2023-05-20T19:32:07.086Z,29.70
2023-05-20T19:42:10.726Z,17.70
2023-05-20T19:52:18.734Z,21.10
2023-05-20T20:02:23.302Z,25.60
2023-05-20T20:12:27.027Z,14.90
2023-05-20T20:22:30.912Z,17.20
2023-05-20T20:32:36.313Z,17.30
2023-05-20T20:42:42.167Z,22.40
2023-05-20T20:52:45.431Z,19.20
2023-05-20T21:02:52.915Z,17.20
2023-05-20T21:12:58.246Z,24.60
2023-05-20T21:23:01.508Z,19.10
2023-05-20T21:33:04.947Z,20.80
2023-05-20T21:43:08.095Z,16.40
2023-05-20T21:53:11.172Z,17.20
2023-05-20T22:03:14.821Z,57.30
2023-05-20T22:13:20.779Z,69.60
2023-05-20T22:23:23.976Z,70.10
2023-05-20T22:33:27.131Z,82.40
2023-05-20T22:43:30.248Z,44.60
2023-05-20T22:53:33.466Z,41.60
2023-05-20T23:03:36.778Z,44.80
2023-05-20T23:13:39.894Z,26.90
2023-05-20T23:23:42.945Z,20.60
2023-05-20T23:33:46.177Z,21.00
2023-05-20T23:43:49.407Z,33.40
2023-05-20T23:53:52.473Z,30.90
